createdAt,value
2017-10-17T00:00:24.868Z,946.57
2017-10-17T00:01:24.869Z,946.57
2017-10-17T00:02:24.871Z,946.58
2017-10-17T00:03:24.873Z,946.58
2017-10-17T00:04:24.875Z,946.60
2017-10-17T00:05:24.877Z,946.58
2017-10-17T00:06:24.877Z,946.56
2017-10-17T00:07:24.880Z,946.56
2017-10-17T00:08:24.882Z,946.57
2017-10-17T00:09:24.886Z,946.55
2017-10-17T00:10:24.885Z,946.57
2017-10-17T00:11:24.889Z,946.54
2017-10-17T00:12:24.889Z,946.57
2017-10-17T00:13:24.893Z,946.54
2017-10-17T00:14:24.892Z,946.53
2017-10-17T00:15:24.895Z,946.53
2017-10-17T00:16:24.899Z,946.54
2017-10-17T00:17:24.899Z,946.55
2017-10-17T00:18:24.901Z,946.54
2017-10-17T00:19:24.904Z,946.54
2017-10-17T00:20:24.905Z,946.53
2017-10-17T00:21:24.906Z,946.51
2017-10-17T00:22:24.909Z,946.54
2017-10-17T00:23:24.910Z,946.51
2017-10-17T00:24:24.914Z,946.51
2017-10-17T00:25:24.917Z,946.54
2017-10-17T00:26:24.916Z,946.50
2017-10-17T00:27:24.920Z,946.49
2017-10-17T00:28:24.922Z,946.46
2017-10-17T00:29:24.924Z,946.45
2017-10-17T00:30:24.926Z,946.43
2017-10-17T00:31:24.927Z,946.43
2017-10-17T00:32:24.930Z,946.41
2017-10-17T00:33:24.932Z,946.41
2017-10-17T00:34:24.934Z,946.38
2017-10-17T00:35:24.934Z,946.37
2017-10-17T00:36:24.941Z,946.38
2017-10-17T00:37:24.938Z,946.35
2017-10-17T00:38:24.940Z,946.35
2017-10-17T00:39:24.941Z,946.34
2017-10-17T00:40:24.945Z,946.35
2017-10-17T00:41:24.946Z,946.34
2017-10-17T00:42:24.948Z,946.31
2017-10-17T00:43:24.951Z,946.31
2017-10-17T00:44:24.951Z,946.32
2017-10-17T00:45:24.954Z,946.31
2017-10-17T00:46:24.954Z,946.30
2017-10-17T00:47:24.957Z,946.31
2017-10-17T00:48:24.959Z,946.30
2017-10-17T00:49:24.961Z,946.29
2017-10-17T00:50:24.961Z,946.24
2017-10-17T00:51:24.964Z,946.28
2017-10-17T00:52:24.966Z,946.21
2017-10-17T00:53:24.969Z,946.26
2017-10-17T00:54:25.271Z,946.23
2017-10-17T00:55:24.972Z,946.21
2017-10-17T00:56:24.979Z,946.18
2017-10-17T00:57:24.975Z,946.17
2017-10-17T00:58:24.977Z,946.17
2017-10-17T00:59:24.978Z,946.17
2017-10-17T01:00:24.980Z,946.10
2017-10-17T01:01:24.982Z,946.16
2017-10-17T01:02:24.984Z,946.11
2017-10-17T01:03:24.986Z,946.08
2017-10-17T01:04:24.987Z,946.10
2017-10-17T01:05:24.989Z,946.08
2017-10-17T01:06:24.991Z,946.04
2017-10-17T01:07:24.992Z,946.01
2017-10-17T01:08:24.993Z,946.04
2017-10-17T01:09:24.996Z,946.05
2017-10-17T01:10:24.997Z,946.03
2017-10-17T01:11:24.998Z,946.04
2017-10-17T01:12:25.000Z,946.02
2017-10-17T01:13:25.002Z,945.97
2017-10-17T01:14:25.002Z,946.00
2017-10-17T01:15:25.006Z,946.01
2017-10-17T01:16:25.008Z,946.01
2017-10-17T01:17:25.009Z,945.97
2017-10-17T01:18:25.015Z,945.95
2017-10-17T01:19:25.013Z,945.92
2017-10-17T01:20:25.014Z,945.90
2017-10-17T01:21:25.016Z,945.93
2017-10-17T01:22:25.017Z,945.90
2017-10-17T01:23:25.019Z,945.91
2017-10-17T01:24:25.021Z,945.93
2017-10-17T01:25:25.023Z,945.93
2017-10-17T01:26:25.024Z,945.94
2017-10-17T01:27:25.025Z,945.88
2017-10-17T01:28:25.027Z,945.92
2017-10-17T01:29:25.028Z,945.91
2017-10-17T01:30:25.030Z,945.91
2017-10-17T01:31:25.031Z,945.90
2017-10-17T01:32:25.034Z,945.91
2017-10-17T01:33:25.034Z,945.91
2017-10-17T01:34:25.037Z,945.90
2017-10-17T01:35:25.036Z,945.87
2017-10-17T01:36:25.038Z,945.86
2017-10-17T01:37:25.041Z,945.87
2017-10-17T01:38:25.042Z,945.86
2017-10-17T01:39:25.043Z,945.88
2017-10-17T01:40:25.045Z,945.89
2017-10-17T01:41:25.047Z,945.88
2017-10-17T01:42:25.048Z,945.87
2017-10-17T01:43:25.050Z,945.86
2017-10-17T01:44:25.051Z,945.86
2017-10-17T01:45:25.054Z,945.85
2017-10-17T01:46:25.053Z,945.85
2017-10-17T01:47:25.057Z,945.84
2017-10-17T01:48:25.057Z,945.81
2017-10-17T01:49:25.059Z,945.82
2017-10-17T01:50:25.061Z,945.83
2017-10-17T01:51:25.075Z,945.83
2017-10-17T01:52:25.064Z,945.85
2017-10-17T01:53:25.065Z,945.88
2017-10-17T01:54:25.067Z,945.81
2017-10-17T01:55:25.069Z,945.83
2017-10-17T01:56:25.072Z,945.86
2017-10-17T01:57:25.071Z,945.81
2017-10-17T01:58:25.077Z,945.85
2017-10-17T01:59:25.076Z,945.83
2017-10-17T02:00:25.077Z,945.83
2017-10-17T02:01:25.097Z,945.80
2017-10-17T02:02:25.079Z,945.79
2017-10-17T02:03:25.080Z,945.79
2017-10-17T02:04:25.082Z,945.77
2017-10-17T02:05:25.084Z,945.78
2017-10-17T02:06:25.109Z,945.81
2017-10-17T02:07:25.087Z,945.78
2017-10-17T02:08:25.088Z,945.77
2017-10-17T02:09:25.090Z,945.79
2017-10-17T02:10:25.091Z,945.78
2017-10-17T02:11:25.094Z,945.79
2017-10-17T02:12:25.095Z,945.76
2017-10-17T02:13:25.096Z,945.77
2017-10-17T02:14:25.098Z,945.76
2017-10-17T02:15:25.098Z,945.77
2017-10-17T02:16:25.100Z,945.78
2017-10-17T02:17:25.102Z,945.76
2017-10-17T02:18:25.104Z,945.79
2017-10-17T02:19:25.105Z,945.80
2017-10-17T02:20:25.107Z,945.78
2017-10-17T02:21:25.108Z,945.74
2017-10-17T02:22:25.109Z,945.77
2017-10-17T02:23:25.110Z,945.79
2017-10-17T02:24:25.113Z,945.79
2017-10-17T02:25:25.114Z,945.78
2017-10-17T02:26:25.121Z,945.75
2017-10-17T02:27:25.117Z,945.80
2017-10-17T02:28:25.119Z,945.83
2017-10-17T02:29:25.121Z,945.81
2017-10-17T02:30:25.125Z,945.80
2017-10-17T02:31:25.124Z,945.77
2017-10-17T02:32:25.124Z,945.80
2017-10-17T02:33:25.127Z,945.81
2017-10-17T02:34:25.128Z,945.84
2017-10-17T02:35:25.130Z,945.81
2017-10-17T02:36:25.132Z,945.79
2017-10-17T02:37:25.133Z,945.84
2017-10-17T02:38:25.135Z,945.80
2017-10-17T02:39:25.136Z,945.78
2017-10-17T02:40:25.137Z,945.78
2017-10-17T02:41:25.139Z,945.81
2017-10-17T02:42:25.140Z,945.80
2017-10-17T02:43:25.141Z,945.86
2017-10-17T02:44:25.143Z,945.85
2017-10-17T02:45:25.146Z,945.87
2017-10-17T02:46:25.146Z,945.84
2017-10-17T02:47:25.150Z,945.87
2017-10-17T02:48:25.150Z,945.84
2017-10-17T02:49:25.152Z,945.82
2017-10-17T02:50:25.153Z,945.85
2017-10-17T02:51:25.156Z,945.89
2017-10-17T02:52:25.155Z,945.88
2017-10-17T02:53:25.157Z,945.85
2017-10-17T02:54:25.163Z,945.86
2017-10-17T02:55:25.160Z,945.90
2017-10-17T02:56:25.163Z,945.90
2017-10-17T02:57:25.164Z,945.90
2017-10-17T02:58:25.165Z,945.92
2017-10-17T02:59:25.169Z,945.88
2017-10-17T03:00:25.169Z,945.93
2017-10-17T03:01:25.170Z,945.94
2017-10-17T03:02:25.172Z,945.95
2017-10-17T03:03:25.172Z,945.87
2017-10-17T03:04:25.175Z,945.91
2017-10-17T03:05:25.176Z,945.94
2017-10-17T03:06:25.178Z,945.95
2017-10-17T03:07:25.179Z,945.93
2017-10-17T03:08:25.183Z,945.90
2017-10-17T03:09:25.188Z,945.92
2017-10-17T03:10:25.182Z,945.90
2017-10-17T03:11:25.185Z,945.89
2017-10-17T03:12:25.188Z,945.92
2017-10-17T03:13:25.189Z,945.89
2017-10-17T03:14:25.193Z,945.84
2017-10-17T03:15:25.192Z,945.88
2017-10-17T03:16:25.192Z,945.82
2017-10-17T03:17:25.195Z,945.91
2017-10-17T03:18:25.196Z,945.88
2017-10-17T03:19:25.198Z,945.84
2017-10-17T03:20:25.200Z,945.80
2017-10-17T03:21:25.201Z,945.86
2017-10-17T03:22:25.202Z,945.82
2017-10-17T03:23:25.210Z,945.87
2017-10-17T03:24:25.205Z,945.86
2017-10-17T03:25:25.207Z,945.82
2017-10-17T03:26:25.227Z,945.82
2017-10-17T03:27:25.219Z,945.78
2017-10-17T03:28:25.233Z,945.78
2017-10-17T03:29:25.213Z,945.79
2017-10-17T03:30:25.215Z,945.78
2017-10-17T03:31:25.215Z,945.81
2017-10-17T03:32:25.219Z,945.75
2017-10-17T03:33:25.221Z,945.78
2017-10-17T03:34:25.220Z,945.78
2017-10-17T03:35:25.222Z,945.74
2017-10-17T03:36:25.223Z,945.74
2017-10-17T03:37:25.227Z,945.75
2017-10-17T03:38:25.226Z,945.77
2017-10-17T03:39:25.227Z,945.80
2017-10-17T03:40:25.229Z,945.77
2017-10-17T03:41:25.232Z,945.76
2017-10-17T03:42:25.232Z,945.75
2017-10-17T03:43:25.233Z,945.77
2017-10-17T03:44:25.240Z,945.77
2017-10-17T03:45:25.236Z,945.79
2017-10-17T03:46:25.238Z,945.80
2017-10-17T03:47:25.243Z,945.80
2017-10-17T03:48:25.242Z,945.83
2017-10-17T03:49:25.261Z,945.80
2017-10-17T03:50:25.243Z,945.83
2017-10-17T03:51:25.246Z,945.81
2017-10-17T03:52:25.247Z,945.86
2017-10-17T03:53:25.249Z,945.84
2017-10-17T03:54:25.251Z,945.88
2017-10-17T03:55:25.252Z,945.82
2017-10-17T03:56:25.253Z,945.85
2017-10-17T03:57:25.255Z,945.83
2017-10-17T03:58:25.255Z,945.83
2017-10-17T03:59:25.258Z,945.82
2017-10-17T04:00:25.259Z,945.84
2017-10-17T04:01:25.262Z,945.84
2017-10-17T04:02:25.264Z,945.86
2017-10-17T04:03:25.264Z,945.88
2017-10-17T04:04:25.264Z,945.89
2017-10-17T04:05:25.272Z,945.87
2017-10-17T04:06:25.268Z,945.87
2017-10-17T04:07:25.268Z,945.92
2017-10-17T04:08:25.269Z,945.87
2017-10-17T04:09:25.271Z,945.88
2017-10-17T04:10:25.272Z,945.83
2017-10-17T04:11:25.275Z,945.86
2017-10-17T04:12:25.275Z,945.85
2017-10-17T04:13:25.276Z,945.86
2017-10-17T04:14:25.280Z,945.84
2017-10-17T04:15:25.281Z,945.85
2017-10-17T04:16:25.280Z,945.84
2017-10-17T04:17:25.284Z,945.88
2017-10-17T04:18:25.283Z,945.84
2017-10-17T04:19:25.286Z,945.87
2017-10-17T04:20:25.285Z,945.85
2017-10-17T04:21:25.288Z,945.85
2017-10-17T04:22:25.289Z,945.86
2017-10-17T04:23:25.291Z,945.89
2017-10-17T04:24:25.293Z,945.91
2017-10-17T04:25:25.293Z,945.93
2017-10-17T04:26:25.295Z,945.89
2017-10-17T04:27:25.295Z,945.91
2017-10-17T04:28:25.297Z,945.91
2017-10-17T04:29:25.302Z,945.91
2017-10-17T04:30:25.298Z,945.90
2017-10-17T04:31:25.302Z,945.94
2017-10-17T04:32:25.303Z,945.95
2017-10-17T04:33:25.304Z,945.96
2017-10-17T04:34:25.304Z,945.92
2017-10-17T04:35:25.320Z,945.96
2017-10-17T04:36:25.307Z,945.91
2017-10-17T04:37:25.309Z,945.94
2017-10-17T04:38:25.308Z,945.89
2017-10-17T04:39:25.311Z,945.92
2017-10-17T04:40:25.312Z,945.91
2017-10-17T04:41:25.313Z,945.93
2017-10-17T04:42:25.314Z,945.91
2017-10-17T04:43:25.317Z,945.94
2017-10-17T04:44:25.316Z,945.85
2017-10-17T04:45:25.318Z,945.89
2017-10-17T04:46:25.319Z,945.90
2017-10-17T04:47:25.321Z,945.90
2017-10-17T04:48:25.321Z,945.91
2017-10-17T04:49:25.326Z,945.91
2017-10-17T04:50:25.326Z,945.90
2017-10-17T04:51:25.324Z,945.90
2017-10-17T04:52:25.326Z,945.93
2017-10-17T04:53:25.327Z,945.92
2017-10-17T04:54:25.329Z,945.90
2017-10-17T04:55:25.331Z,945.89
2017-10-17T04:56:25.332Z,945.89
2017-10-17T04:57:25.333Z,945.87
2017-10-17T04:58:25.332Z,945.91
2017-10-17T04:59:25.334Z,945.91
2017-10-17T05:00:25.335Z,945.89
2017-10-17T05:01:25.337Z,945.93
2017-10-17T05:02:25.336Z,945.88
2017-10-17T05:03:25.338Z,945.90
2017-10-17T05:04:25.339Z,945.88
2017-10-17T05:05:25.341Z,945.91
2017-10-17T05:06:25.341Z,945.89
2017-10-17T05:07:25.343Z,945.89
2017-10-17T05:08:25.344Z,945.89
2017-10-17T05:09:25.345Z,945.88
2017-10-17T05:10:25.346Z,945.87
2017-10-17T05:11:25.349Z,945.88
2017-10-17T05:12:25.349Z,945.85
2017-10-17T05:13:25.350Z,945.85
2017-10-17T05:14:25.349Z,945.83
2017-10-17T05:15:25.352Z,945.83
2017-10-17T05:16:25.352Z,945.85
2017-10-17T05:17:25.355Z,945.83
2017-10-17T05:18:25.353Z,945.84
2017-10-17T05:19:25.354Z,945.84
2017-10-17T05:20:25.357Z,945.83
2017-10-17T05:21:25.361Z,945.81
2017-10-17T05:22:25.357Z,945.77
2017-10-17T05:23:25.357Z,945.82
2017-10-17T05:24:25.359Z,945.79
2017-10-17T05:25:25.360Z,945.78
2017-10-17T05:26:25.395Z,945.85
2017-10-17T05:27:25.361Z,945.80
2017-10-17T05:28:25.362Z,945.78
2017-10-17T05:29:25.365Z,945.78
2017-10-17T05:30:25.363Z,945.79
2017-10-17T05:31:25.364Z,945.79
2017-10-17T05:32:25.366Z,945.81
2017-10-17T05:33:25.367Z,945.80
2017-10-17T05:34:25.368Z,945.78
2017-10-17T05:35:25.367Z,945.79
2017-10-17T05:36:25.369Z,945.80
2017-10-17T05:37:25.370Z,945.80
2017-10-17T05:38:25.371Z,945.80
2017-10-17T05:39:25.372Z,945.82
2017-10-17T05:40:25.374Z,945.82
2017-10-17T05:41:25.374Z,945.79
2017-10-17T05:42:25.374Z,945.81
2017-10-17T05:43:25.375Z,945.80
2017-10-17T05:44:25.376Z,945.81
2017-10-17T05:45:25.378Z,945.80
2017-10-17T05:46:25.376Z,945.82
2017-10-17T05:47:25.377Z,945.85
2017-10-17T05:48:25.378Z,945.83
2017-10-17T05:49:25.381Z,945.82
2017-10-17T05:50:25.380Z,945.83
2017-10-17T05:51:25.386Z,945.86
2017-10-17T05:52:25.382Z,945.80
2017-10-17T05:53:25.384Z,945.86
2017-10-17T05:54:25.384Z,945.85
2017-10-17T05:55:25.385Z,945.83
2017-10-17T05:56:25.387Z,945.81
2017-10-17T05:57:25.388Z,945.84
2017-10-17T05:58:25.388Z,945.87
2017-10-17T05:59:25.388Z,945.84
2017-10-17T06:00:25.389Z,945.87
2017-10-17T06:01:25.391Z,945.82
2017-10-17T06:02:25.392Z,945.85
2017-10-17T06:03:25.392Z,945.88
2017-10-17T06:04:25.400Z,945.87
2017-10-17T06:05:25.394Z,945.86
2017-10-17T06:06:25.395Z,945.90
2017-10-17T06:07:25.396Z,945.92
2017-10-17T06:08:25.397Z,945.91
2017-10-17T06:09:25.399Z,945.92
2017-10-17T06:10:25.397Z,945.88
2017-10-17T06:11:25.399Z,945.90
2017-10-17T06:12:25.400Z,945.91
2017-10-17T06:13:25.400Z,945.94
2017-10-17T06:14:25.403Z,945.91
2017-10-17T06:15:25.403Z,945.91
2017-10-17T06:16:25.404Z,945.94
2017-10-17T06:17:25.411Z,945.96
2017-10-17T06:18:25.406Z,945.95
2017-10-17T06:19:25.407Z,945.93
2017-10-17T06:20:25.423Z,945.92
2017-10-17T06:21:25.409Z,945.90
2017-10-17T06:22:25.409Z,945.91
2017-10-17T06:23:25.410Z,945.94
2017-10-17T06:24:25.413Z,945.95
2017-10-17T06:25:25.413Z,945.94
2017-10-17T06:26:25.414Z,945.98
2017-10-17T06:27:25.419Z,945.97
2017-10-17T06:28:25.416Z,945.97
2017-10-17T06:29:25.418Z,946.00
2017-10-17T06:30:25.417Z,945.98
2017-10-17T06:31:25.419Z,946.03
2017-10-17T06:32:25.420Z,946.00
2017-10-17T06:33:25.426Z,946.03
2017-10-17T06:34:25.423Z,946.03
2017-10-17T06:35:25.423Z,946.06
2017-10-17T06:36:25.426Z,946.08
2017-10-17T06:37:25.425Z,946.06
2017-10-17T06:38:25.427Z,946.07
2017-10-17T06:39:25.458Z,946.06
2017-10-17T06:40:25.429Z,946.06
2017-10-17T06:41:25.430Z,946.07
2017-10-17T06:42:25.431Z,946.04
2017-10-17T06:43:25.433Z,946.05
2017-10-17T06:44:25.434Z,946.07
2017-10-17T06:45:25.435Z,946.05
2017-10-17T06:46:25.435Z,946.06
2017-10-17T06:47:25.436Z,946.07
2017-10-17T06:48:25.438Z,946.09
2017-10-17T06:49:25.439Z,946.05
2017-10-17T06:50:25.440Z,946.07
2017-10-17T06:51:25.442Z,946.08
2017-10-17T06:52:25.443Z,946.06
2017-10-17T06:53:25.445Z,946.07
2017-10-17T06:54:25.444Z,946.08
2017-10-17T06:55:25.446Z,946.06
2017-10-17T06:56:25.448Z,946.11
2017-10-17T06:57:25.451Z,946.11
2017-10-17T06:58:25.452Z,946.20
2017-10-17T06:59:25.455Z,946.24
2017-10-17T07:00:25.454Z,946.30
2017-10-17T07:01:25.457Z,946.23
2017-10-17T07:02:25.458Z,946.24
2017-10-17T07:03:25.463Z,946.22
2017-10-17T07:04:25.465Z,946.25
2017-10-17T07:05:25.468Z,946.24
2017-10-17T07:06:25.470Z,946.28
2017-10-17T07:07:25.475Z,946.27
2017-10-17T07:08:25.481Z,946.24
2017-10-17T07:09:25.485Z,946.24
2017-10-17T07:10:25.490Z,946.24
2017-10-17T07:11:25.494Z,946.26
2017-10-17T07:12:25.500Z,946.23
2017-10-17T07:13:25.505Z,946.24
2017-10-17T07:14:25.510Z,946.18
2017-10-17T07:15:25.516Z,946.24
2017-10-17T07:16:25.521Z,946.17
2017-10-17T07:17:25.527Z,946.23
2017-10-17T07:18:25.531Z,946.20
2017-10-17T07:19:25.536Z,946.24
2017-10-17T07:20:25.542Z,946.21
2017-10-17T07:21:25.546Z,946.25
2017-10-17T07:22:25.550Z,946.29
2017-10-17T07:23:25.555Z,946.26
2017-10-17T07:24:25.561Z,946.26
2017-10-17T07:25:25.565Z,946.20
2017-10-17T07:26:25.570Z,946.18
2017-10-17T07:27:25.574Z,946.20
2017-10-17T07:28:25.579Z,946.19
2017-10-17T07:29:25.590Z,946.18
2017-10-17T07:30:25.588Z,946.16
2017-10-17T07:31:25.593Z,946.19
2017-10-17T07:32:25.598Z,946.19
2017-10-17T07:33:25.602Z,946.20
2017-10-17T07:34:25.605Z,946.16
2017-10-17T07:35:25.612Z,946.15
2017-10-17T07:36:25.616Z,946.16
2017-10-17T07:37:25.621Z,946.22
2017-10-17T07:38:25.624Z,946.15
2017-10-17T07:39:25.630Z,946.18
2017-10-17T07:40:25.637Z,946.14
2017-10-17T07:41:25.640Z,946.17
2017-10-17T07:42:25.644Z,946.15
2017-10-17T07:43:25.650Z,946.24
2017-10-17T07:44:25.654Z,946.17
2017-10-17T07:45:25.661Z,946.16
2017-10-17T07:46:25.664Z,946.19
2017-10-17T07:47:25.670Z,946.16
2017-10-17T07:48:25.679Z,946.13
2017-10-17T07:49:25.680Z,946.15
2017-10-17T07:50:25.685Z,946.14
2017-10-17T07:51:25.696Z,946.12
2017-10-17T07:52:25.697Z,946.12
2017-10-17T07:53:25.701Z,946.21
2017-10-17T07:54:25.706Z,946.13
2017-10-17T07:55:25.711Z,946.13
2017-10-17T07:56:25.717Z,946.16
2017-10-17T07:57:25.728Z,946.08
2017-10-17T07:58:25.727Z,946.14
2017-10-17T07:59:25.735Z,946.14
2017-10-17T08:00:25.741Z,946.19
2017-10-17T08:01:25.748Z,946.20
2017-10-17T08:02:25.754Z,946.15
2017-10-17T08:03:25.761Z,946.16
2017-10-17T08:04:25.767Z,946.28
2017-10-17T08:05:25.775Z,946.25
2017-10-17T08:06:25.783Z,946.28
2017-10-17T08:07:25.790Z,946.27
2017-10-17T08:08:25.800Z,946.28
2017-10-17T08:09:25.809Z,946.28
2017-10-17T08:10:25.817Z,946.27
2017-10-17T08:11:25.827Z,946.21
2017-10-17T08:12:25.835Z,946.19
2017-10-17T08:13:25.845Z,946.15
2017-10-17T08:14:25.854Z,946.13
2017-10-17T08:15:25.863Z,946.11
2017-10-17T08:16:25.870Z,946.11
2017-10-17T08:17:25.879Z,946.14
2017-10-17T08:18:25.888Z,946.07
2017-10-17T08:19:25.895Z,946.07
2017-10-17T08:20:25.903Z,946.11
2017-10-17T08:21:25.916Z,946.07
2017-10-17T08:22:25.918Z,946.07
2017-10-17T08:23:25.928Z,946.14
2017-10-17T08:24:25.936Z,946.15
2017-10-17T08:25:25.944Z,946.22
2017-10-17T08:26:25.953Z,946.16
2017-10-17T08:27:25.962Z,946.22
2017-10-17T08:28:25.972Z,946.18
2017-10-17T08:29:25.982Z,946.18
2017-10-17T08:30:25.989Z,946.19
2017-10-17T08:31:26.005Z,946.13
2017-10-17T08:32:26.009Z,946.08
2017-10-17T08:33:26.020Z,946.09
2017-10-17T08:34:26.030Z,946.08
2017-10-17T08:35:26.040Z,946.10
2017-10-17T08:36:26.050Z,946.12
2017-10-17T08:37:26.060Z,946.17
2017-10-17T08:38:26.069Z,946.12
2017-10-17T08:39:26.082Z,946.11
2017-10-17T08:40:26.092Z,946.09
2017-10-17T08:41:26.106Z,946.05
2017-10-17T08:42:26.114Z,946.13
2017-10-17T08:43:26.126Z,946.11
2017-10-17T08:44:26.138Z,946.16
2017-10-17T08:45:26.150Z,946.05
2017-10-17T08:46:26.162Z,946.04
2017-10-17T08:47:26.174Z,946.02
2017-10-17T08:48:26.190Z,946.02
2017-10-17T08:49:26.200Z,945.97
2017-10-17T08:50:26.210Z,945.94
2017-10-17T08:51:26.222Z,945.96
2017-10-17T08:52:26.235Z,945.95
2017-10-17T08:53:26.245Z,946.02
2017-10-17T08:54:26.254Z,945.98
2017-10-17T08:55:26.272Z,945.87
2017-10-17T08:56:26.281Z,945.88
2017-10-17T08:57:26.286Z,945.91
2017-10-17T08:58:26.295Z,945.88
2017-10-17T08:59:26.308Z,945.96
2017-10-17T09:00:26.317Z,945.92
2017-10-17T09:01:26.327Z,945.97
2017-10-17T09:02:26.336Z,946.00
2017-10-17T09:03:26.346Z,945.94
2017-10-17T09:04:26.357Z,945.94
2017-10-17T09:05:26.374Z,945.97
2017-10-17T09:06:26.378Z,945.95
2017-10-17T09:07:26.389Z,945.92
2017-10-17T09:08:26.402Z,945.94
2017-10-17T09:09:26.414Z,945.98
2017-10-17T09:10:26.426Z,945.93
2017-10-17T09:11:26.437Z,945.97
2017-10-17T09:12:26.453Z,945.97
2017-10-17T09:13:26.465Z,945.97
2017-10-17T09:14:26.475Z,945.97
2017-10-17T09:15:26.489Z,945.94
2017-10-17T09:16:26.503Z,945.91
2017-10-17T09:17:26.517Z,945.95
2017-10-17T09:18:26.530Z,945.89
2017-10-17T09:19:26.544Z,945.90
2017-10-17T09:20:26.557Z,945.88
2017-10-17T09:21:26.571Z,945.87
2017-10-17T09:22:26.585Z,945.94
2017-10-17T09:23:26.597Z,945.87
2017-10-17T09:24:26.614Z,945.86
2017-10-17T09:25:26.624Z,945.85
2017-10-17T09:26:26.635Z,945.86
2017-10-17T09:27:26.648Z,945.84
2017-10-17T09:28:26.662Z,945.78
2017-10-17T09:29:26.674Z,945.78
2017-10-17T09:30:26.684Z,945.82
2017-10-17T09:31:26.696Z,945.82
2017-10-17T09:32:26.711Z,945.79
2017-10-17T09:33:26.722Z,945.74
2017-10-17T09:34:26.733Z,945.74
2017-10-17T09:35:26.747Z,945.73
2017-10-17T09:36:26.757Z,945.72
2017-10-17T09:37:26.770Z,945.76
2017-10-17T09:38:26.781Z,945.72
2017-10-17T09:39:26.793Z,945.74
2017-10-17T09:40:26.805Z,945.67
2017-10-17T09:41:26.819Z,945.70
2017-10-17T09:42:26.828Z,945.66
2017-10-17T09:43:26.841Z,945.68
2017-10-17T09:44:26.854Z,945.66
2017-10-17T09:45:26.866Z,945.67
2017-10-17T09:46:26.875Z,945.67
2017-10-17T09:47:26.888Z,945.69
2017-10-17T09:48:26.899Z,945.66
2017-10-17T09:49:26.912Z,945.63
2017-10-17T09:50:26.922Z,945.68
2017-10-17T09:51:26.934Z,945.70
2017-10-17T09:52:26.947Z,945.69
2017-10-17T09:53:26.968Z,945.65
2017-10-17T09:54:26.971Z,945.65
2017-10-17T09:55:26.983Z,945.71
2017-10-17T09:56:26.997Z,945.70
2017-10-17T09:57:27.009Z,945.68
2017-10-17T09:58:27.022Z,945.70
2017-10-17T09:59:27.038Z,945.63
2017-10-17T10:00:27.051Z,945.63
2017-10-17T10:01:27.066Z,945.66
2017-10-17T10:02:27.080Z,945.61
2017-10-17T10:03:27.095Z,945.62
2017-10-17T10:04:27.111Z,945.65
2017-10-17T10:05:27.125Z,945.66
2017-10-17T10:06:27.141Z,945.61
2017-10-17T10:07:27.155Z,945.58
2017-10-17T10:08:27.179Z,945.61
2017-10-17T10:09:27.189Z,945.57
2017-10-17T10:10:27.204Z,945.55
2017-10-17T10:11:27.220Z,945.56
2017-10-17T10:12:27.237Z,945.56
2017-10-17T10:13:27.253Z,945.57
2017-10-17T10:14:27.270Z,945.57
2017-10-17T10:15:27.286Z,945.52
2017-10-17T10:16:27.303Z,945.52
2017-10-17T10:17:27.323Z,945.52
2017-10-17T10:18:27.336Z,945.51
2017-10-17T10:19:27.352Z,945.50
2017-10-17T10:20:27.371Z,945.50
2017-10-17T10:21:27.386Z,945.52
2017-10-17T10:22:27.403Z,945.50
2017-10-17T10:23:27.419Z,945.51
2017-10-17T10:24:27.437Z,945.44
2017-10-17T10:25:27.454Z,945.46
2017-10-17T10:26:27.478Z,945.44
2017-10-17T10:27:27.489Z,945.42
2017-10-17T10:28:27.506Z,945.43
2017-10-17T10:29:27.523Z,945.38
2017-10-17T10:30:27.540Z,945.37
2017-10-17T10:31:27.557Z,945.38
2017-10-17T10:32:27.576Z,945.34
2017-10-17T10:33:27.594Z,945.38
2017-10-17T10:34:27.610Z,945.36
2017-10-17T10:35:27.632Z,945.33
2017-10-17T10:36:27.645Z,945.35
2017-10-17T10:37:27.664Z,945.35
2017-10-17T10:38:27.679Z,945.33
2017-10-17T10:39:27.697Z,945.31
2017-10-17T10:40:27.715Z,945.32
2017-10-17T10:41:27.732Z,945.28
2017-10-17T10:42:27.749Z,945.25
2017-10-17T10:43:27.765Z,945.23
2017-10-17T10:44:27.783Z,945.24
2017-10-17T10:45:27.801Z,945.20
2017-10-17T10:46:27.817Z,945.18
2017-10-17T10:47:27.833Z,945.16
2017-10-17T10:48:27.849Z,945.13
2017-10-17T10:49:27.868Z,945.13
2017-10-17T10:50:27.883Z,945.16
2017-10-17T10:51:27.899Z,945.10
2017-10-17T10:52:27.916Z,945.09
2017-10-17T10:53:27.944Z,945.05
2017-10-17T10:54:27.947Z,945.05
2017-10-17T10:55:27.965Z,945.00
2017-10-17T10:56:27.981Z,945.02
2017-10-17T10:57:27.998Z,945.01
2017-10-17T10:58:28.011Z,944.95
2017-10-17T10:59:28.028Z,944.98
2017-10-17T11:00:28.041Z,944.96
2017-10-17T11:01:28.058Z,944.96
2017-10-17T11:02:28.073Z,944.93
2017-10-17T11:03:28.090Z,944.92
2017-10-17T11:04:28.104Z,944.92
2017-10-17T11:05:28.121Z,944.90
2017-10-17T11:06:28.133Z,944.90
2017-10-17T11:07:28.149Z,944.87
2017-10-17T11:08:28.165Z,944.89
2017-10-17T11:09:28.180Z,944.84
2017-10-17T11:10:28.197Z,944.81
2017-10-17T11:11:28.209Z,944.82
2017-10-17T11:12:28.225Z,944.83
2017-10-17T11:13:28.242Z,944.78
2017-10-17T11:14:28.251Z,944.83
2017-10-17T11:15:28.268Z,944.81
2017-10-17T11:16:28.282Z,944.79
2017-10-17T11:17:28.296Z,944.77
2017-10-17T11:18:28.311Z,944.78
2017-10-17T11:19:28.325Z,944.80
2017-10-17T11:20:28.343Z,944.81
2017-10-17T11:21:28.354Z,944.81
2017-10-17T11:22:28.369Z,944.78
2017-10-17T11:23:28.383Z,944.71
2017-10-17T11:24:28.397Z,944.70
2017-10-17T11:25:28.411Z,944.70
2017-10-17T11:26:28.425Z,944.67
2017-10-17T11:27:28.438Z,944.67
2017-10-17T11:28:28.453Z,944.65
2017-10-17T11:29:28.466Z,944.64
2017-10-17T11:30:28.481Z,944.62
2017-10-17T11:31:28.498Z,944.61
2017-10-17T11:32:28.508Z,944.61
2017-10-17T11:33:28.522Z,944.62
2017-10-17T11:34:28.538Z,944.58
2017-10-17T11:35:28.550Z,944.54
2017-10-17T11:36:28.563Z,944.56
2017-10-17T11:37:28.577Z,944.54
2017-10-17T11:38:28.589Z,944.53
2017-10-17T11:39:28.603Z,944.54
2017-10-17T11:40:28.616Z,944.51
2017-10-17T11:41:28.631Z,944.51
2017-10-17T11:42:28.645Z,944.52
2017-10-17T11:43:28.657Z,944.51
2017-10-17T11:44:28.670Z,944.50
2017-10-17T11:45:28.685Z,944.50
2017-10-17T11:46:28.698Z,944.46
2017-10-17T11:47:28.712Z,944.44
2017-10-17T11:48:28.728Z,944.42
2017-10-17T11:49:28.740Z,944.37
2017-10-17T11:50:28.753Z,944.39
2017-10-17T11:51:28.767Z,944.34
2017-10-17T11:52:28.781Z,944.31
2017-10-17T11:53:28.795Z,944.30
2017-10-17T11:54:28.809Z,944.27
2017-10-17T11:55:28.823Z,944.24
2017-10-17T11:56:28.837Z,944.18
2017-10-17T11:57:28.851Z,944.15
2017-10-17T11:58:28.864Z,944.16
2017-10-17T11:59:28.879Z,944.12
2017-10-17T12:00:28.892Z,944.11
2017-10-17T12:01:28.909Z,944.06
2017-10-17T12:02:28.920Z,944.04
2017-10-17T12:03:28.934Z,944.06
2017-10-17T12:04:28.946Z,944.03
2017-10-17T12:05:28.967Z,943.99
2017-10-17T12:06:28.973Z,943.96
2017-10-17T12:07:28.987Z,943.92
2017-10-17T12:08:29.002Z,943.92
2017-10-17T12:09:29.014Z,943.93
2017-10-17T12:10:29.026Z,943.88
2017-10-17T12:11:29.040Z,943.85
2017-10-17T12:12:29.054Z,943.84
2017-10-17T12:13:29.066Z,943.80
2017-10-17T12:14:29.079Z,943.79
2017-10-17T12:15:29.093Z,943.79
2017-10-17T12:16:29.106Z,943.77
2017-10-17T12:17:29.120Z,943.75
2017-10-17T12:18:29.131Z,943.70
2017-10-17T12:19:29.146Z,943.73
2017-10-17T12:20:29.159Z,943.69
2017-10-17T12:21:29.173Z,943.71
2017-10-17T12:22:29.184Z,943.66
2017-10-17T12:23:29.199Z,943.65
2017-10-17T12:24:29.211Z,943.63
2017-10-17T12:25:29.226Z,943.68
2017-10-17T12:26:29.240Z,943.63
2017-10-17T12:27:29.253Z,943.65
2017-10-17T12:28:29.268Z,943.64